Aabenraa, Denmark
Current Conditions -  °F | °C
As of 10:50 PM on Thursday 27 Nov 2014 (Local Time) from EKSP Reporting Station
Broken Clouds Broken Clouds  
Wind Chill: 30°   Ceiling: 2200
Heat Index: 39°   Visibility: 6mi
Dew Point: 34°   Wind: 17mph
Humidity: 81%   Direction: 120°ESE
Pressure: 30"   Gusts: NA
Location:  55.04°N, 9.42°E
Report Text: EKSP 272150Z 12015KT 9999 BKN022 04/01 Q1016 TEMPO 12018G28KT
Loading
Personal Weather Stations






























Interactive Weather Map New forecast layout! Learn more

10-Day Weather Forecast

Advertisements
Track Severe Weather on mobile